Observation data for Saint Lawrence on 01/18/2019      Previous  Date  Next       Current Mesonet Observations  Soil Data  Daily Summary Page  Observations in Plain Language
KST1 180600Z 19007KT 08/03 A3007 RMK A01 T00780026  RH  070%=      5-min Rain = 0
KST1 180605Z 18007KT 08/03 A3007 RMK A01 T00810026  RH  069%=      5-min Rain = 0
KST1 180610Z 18007KT 08/03 A3006 RMK A01 T00830027  RH  069%=      5-min Rain = 0
KST1 180615Z 18007KT 08/03 A3006 RMK A01 T00840027  RH  068%=      5-min Rain = 0
KST1 180620Z 18006KT 09/03 A3006 RMK A01 T00850027  RH  068%=      5-min Rain = 0
KST1 180625Z 18006KT 08/03 A3006 RMK A01 T00840026  RH  068%=      5-min Rain = 0
KST1 180630Z 18007KT 08/03 A3006 RMK A01 T00820026  RH  069%=      5-min Rain = 0
KST1 180635Z 18007KT 08/03 A3006 RMK A01 T00790026  RH  070%=      5-min Rain = 0
KST1 180640Z 18008KT 08/03 A3006 RMK A01 T00780027  RH  071%=      5-min Rain = 0
KST1 180645Z 18008KT 08/03 A3005 RMK A01 T00790027  RH  071%=      5-min Rain = 0
KST1 180650Z 18008KT 08/03 A3005 RMK A01 T00800027  RH  070%=      5-min Rain = 0
KST1 180655Z 18007KT 08/03 A3005 RMK A01 T00800028  RH  071%=      5-min Rain = 0
KST1 180700Z 19007KT 08/03 A3005 RMK A01 T00780028  RH  071%=      5-min Rain = 0
KST1 180705Z 19007KT 08/03 A3005 RMK A01 T00800028  RH  071%=      5-min Rain = 0
KST1 180710Z 19007KT 08/03 A3005 RMK A01 T00810028  RH  070%=      5-min Rain = 0
KST1 180715Z 19007KT 08/03 A3005 RMK A01 T00840029  RH  069%=      5-min Rain = 0
KST1 180720Z 19007KT 09/03 A3004 RMK A01 T00850029  RH  069%=      5-min Rain = 0
KST1 180725Z 18007KT 08/03 A3004 RMK A01 T00820029  RH  070%=      5-min Rain = 0
KST1 180730Z 18008KT 08/03 A3003 RMK A01 T00800030  RH  071%=      5-min Rain = 0
KST1 180735Z 18009KT 08/03 A3003 RMK A01 T00780029  RH  072%=      5-min Rain = 0
KST1 180740Z 18009KT 08/03 A3003 RMK A01 T00780030  RH  072%=      5-min Rain = 0
KST1 180745Z 18009KT 08/03 A3002 RMK A01 T00800030  RH  072%=      5-min Rain = 0
KST1 180750Z 18010KT 08/03 A3002 RMK A01 T00810031  RH  072%=      5-min Rain = 0
KST1 180755Z 18009KT 08/03 A3002 RMK A01 T00800031  RH  072%=      5-min Rain = 0
KST1 180800Z 18009KT 08/03 A3002 RMK A01 T00810032  RH  072%=      5-min Rain = 0
KST1 180805Z 18009KT 08/03 A3002 RMK A01 T00810032  RH  072%=      5-min Rain = 0
KST1 180810Z 19009KT 08/03 A3002 RMK A01 T00830033  RH  072%=      5-min Rain = 0
KST1 180815Z 19010KT 09/04 A3002 RMK A01 T00920035  RH  068%=      5-min Rain = 0
KST1 180820Z 19011KT 10/04 A3002 RMK A01 T00990036  RH  066%=      5-min Rain = 0
KST1 180825Z 19012KT 10/04 A3002 RMK A01 T01040036  RH  064%=      5-min Rain = 0
KST1 180830Z 19011KT 11/04 A3001 RMK A01 T01050037  RH  063%=      5-min Rain = 0
KST1 180835Z 19011KT 11/04 A3001 RMK A01 T01050037  RH  064%=      5-min Rain = 0
KST1 180840Z 19011KT 10/04 A3001 RMK A01 T01040038  RH  064%=      5-min Rain = 0
KST1 180845Z 19011KT 11/04 A3001 RMK A01 T01050038  RH  064%=      5-min Rain = 0
KST1 180850Z 19010KT 11/04 A3002 RMK A01 T01050038  RH  064%=      5-min Rain = 0
KST1 180855Z 19009KT 10/04 A3001 RMK A01 T01030038  RH  065%=      5-min Rain = 0
KST1 180900Z 20008KT 10/04 A3001 RMK A01 T01020038  RH  065%=      5-min Rain = 0
KST1 180905Z 19008KT 10/04 A3001 RMK A01 T00990038  RH  066%=      5-min Rain = 0
KST1 180910Z 19009KT 10/04 A3001 RMK A01 T00980038  RH  067%=      5-min Rain = 0
KST1 180915Z 19009KT 10/04 A3001 RMK A01 T00990038  RH  066%=      5-min Rain = 0
KST1 180920Z 19009KT 10/04 A3001 RMK A01 T00970037  RH  067%=      5-min Rain = 0
KST1 180925Z 19010KT 10/04 A30 RMK A01 T00980037  RH  067%=      5-min Rain = 0
KST1 180930Z 20010KT 10/04 A30 RMK A01 T00980037  RH  067%=      5-min Rain = 0
KST1 180935Z 19010KT 10/04 A30 RMK A01 T00980037  RH  067%=      5-min Rain = 0
KST1 180940Z 19011KT 10/04 A30 RMK A01 T00980037  RH  067%=      5-min Rain = 0
KST1 180945Z 20009KT 10/04 A30 RMK A01 T00980037  RH  067%=      5-min Rain = 0
KST1 180950Z 20009KT 10/04 A2999 RMK A01 T00960037  RH  067%=      5-min Rain = 0
KST1 180955Z 20008KT 09/04 A2999 RMK A01 T00940036  RH  068%=      5-min Rain = 0
KST1 181000Z 20008KT 09/04 A2999 RMK A01 T00930036  RH  068%=      5-min Rain = 0
KST1 181005Z 20007KT 09/04 A2999 RMK A01 T00920035  RH  069%=      5-min Rain = 0
KST1 181010Z 20008KT 09/04 A2999 RMK A01 T00900035  RH  069%=      5-min Rain = 0
KST1 181015Z 20008KT 09/03 A2999 RMK A01 T00910034  RH  068%=      5-min Rain = 0
KST1 181020Z 21008KT 09/03 A2998 RMK A01 T00900034  RH  069%=      5-min Rain = 0
KST1 181025Z 21008KT 08/03 A2998 RMK A01 T00840033  RH  071%=      5-min Rain = 0
KST1 181030Z 21007KT 08/03 A2998 RMK A01 T00800032  RH  073%=      5-min Rain = 0
KST1 181035Z 22007KT 08/03 A2997 RMK A01 T00750031  RH  074%=      5-min Rain = 0
KST1 181040Z 22006KT 07/03 A2997 RMK A01 T00690029  RH  077%=      5-min Rain = 0
KST1 181045Z 21007KT 07/03 A2997 RMK A01 T00680030  RH  078%=      5-min Rain = 0
KST1 181050Z 21007KT 07/03 A2997 RMK A01 T00720031  RH  076%=      5-min Rain = 0
KST1 181055Z 21008KT 08/03 A2997 RMK A01 T00760032  RH  075%=      5-min Rain = 0
KST1 181100Z 20008KT 08/03 A2996 RMK A01 T00820033  RH  072%=      5-min Rain = 0
KST1 181105Z 20007KT 09/03 A2996 RMK A01 T00860033  RH  070%=      5-min Rain = 0
KST1 181110Z 20008KT 09/03 A2995 RMK A01 T00860033  RH  070%=      5-min Rain = 0
KST1 181115Z 20008KT 09/03 A2995 RMK A01 T00880034  RH  070%=      5-min Rain = 0
KST1 181120Z 20008KT 09/03 A2995 RMK A01 T00860033  RH  070%=      5-min Rain = 0
KST1 181125Z 20008KT 08/03 A2995 RMK A01 T00840034  RH  071%=      5-min Rain = 0
KST1 181130Z 21009KT 08/03 A2995 RMK A01 T00820033  RH  072%=      5-min Rain = 0
KST1 181135Z 20009KT 08/03 A2995 RMK A01 T00810034  RH  073%=      5-min Rain = 0
KST1 181140Z 21009KT 08/03 A2995 RMK A01 T00800033  RH  073%=      5-min Rain = 0
KST1 181145Z 21009KT 08/03 A2995 RMK A01 T00770033  RH  074%=      5-min Rain = 0
KST1 181150Z 21009KT 08/03 A2994 RMK A01 T00780033  RH  074%=      5-min Rain = 0
KST1 181155Z 21010KT 08/03 A2994 RMK A01 T00820033  RH  072%=      5-min Rain = 0
KST1 181200Z 21010KT 08/03 A2994 RMK A01 T00820033  RH  072%=      5-min Rain = 0
KST1 181205Z 20010KT 08/03 A2994 RMK A01 T00820033  RH  072%=      5-min Rain = 0
KST1 181210Z 20009KT 09/03 A2993 RMK A01 T00860033  RH  070%=      5-min Rain = 0
KST1 181215Z 20010KT 09/03 A2993 RMK A01 T00860033  RH  070%=      5-min Rain = 0
KST1 181220Z 20009KT 09/03 A2993 RMK A01 T00860032  RH  070%=      5-min Rain = 0
KST1 181225Z 21010KT 08/03 A2993 RMK A01 T00830032  RH  071%=      5-min Rain = 0
KST1 181230Z 21009KT 08/03 A2993 RMK A01 T00800031  RH  072%=      5-min Rain = 0
KST1 181235Z 20009KT 08/03 A2993 RMK A01 T00800031  RH  072%=      5-min Rain = 0
KST1 181240Z 20009KT 08/03 A2992 RMK A01 T00820032  RH  072%=      5-min Rain = 0
KST1 181245Z 20009KT 08/03 A2992 RMK A01 T00830032  RH  071%=      5-min Rain = 0
KST1 181250Z 20009KT 08/03 A2992 RMK A01 T00810031  RH  072%=      5-min Rain = 0
KST1 181255Z 20010KT 09/03 A2992 RMK A01 T00860033  RH  071%=      5-min Rain = 0
KST1 181300Z 20011KT 09/03 A2991 RMK A01 T00910034  RH  068%=      5-min Rain = 0
KST1 181305Z 20010KT 09/03 A2991 RMK A01 T00910034  RH  068%=      5-min Rain = 0
KST1 181310Z 19012KT 09/04 A2991 RMK A01 T00920035  RH  068%=      5-min Rain = 0
KST1 181315Z 19012KT 09/04 A2991 RMK A01 T00910035  RH  069%=      5-min Rain = 0
KST1 181320Z 19012KT 09/04 A2991 RMK A01 T00920035  RH  068%=      5-min Rain = 0
KST1 181325Z 20011KT 09/04 A2991 RMK A01 T00920035  RH  068%=      5-min Rain = 0
KST1 181330Z 20011KT 09/04 A2992 RMK A01 T00920035  RH  068%=      5-min Rain = 0
KST1 181335Z 20010KT 09/04 A2992 RMK A01 T00900035  RH  069%=      5-min Rain = 0
KST1 181340Z 21009KT 09/03 A2992 RMK A01 T00860034  RH  071%=      5-min Rain = 0
KST1 181345Z 20009KT 08/04 A2992 RMK A01 T00840035  RH  072%=      5-min Rain = 0
KST1 181350Z 20008KT 08/04 A2992 RMK A01 T00840035  RH  072%=      5-min Rain = 0
KST1 181355Z 20008KT 08/04 A2992 RMK A01 T00820035  RH  073%=      5-min Rain = 0
KST1 181400Z 19008KT 08/04 A2992 RMK A01 T00810035  RH  074%=      5-min Rain = 0
KST1 181405Z 19009KT 08/04 A2992 RMK A01 T00800036  RH  074%=      5-min Rain = 0
KST1 181410Z 19009KT 09/04 A2992 RMK A01 T00850037  RH  073%=      5-min Rain = 0
KST1 181415Z 19009KT 09/04 A2992 RMK A01 T00880038  RH  072%=      5-min Rain = 0
KST1 181420Z 20007KT 09/04 A2993 RMK A01 T00910040  RH  071%=      5-min Rain = 0
KST1 181425Z 20007KT 09/04 A2993 RMK A01 T00930042  RH  071%=      5-min Rain = 0
KST1 181430Z 20007KT 09/04 A2992 RMK A01 T00930043  RH  072%=      5-min Rain = 0
KST1 181435Z 21007KT 09/04 A2992 RMK A01 T00930044  RH  073%=      5-min Rain = 0
KST1 181440Z 20007KT 09/04 A2992 RMK A01 T00910044  RH  074%=      5-min Rain = 0
KST1 181445Z 20007KT 09/04 A2992 RMK A01 T00900044  RH  074%=      5-min Rain = 0
KST1 181450Z 20007KT 09/05 A2992 RMK A01 T00900046  RH  075%=      5-min Rain = 0
KST1 181455Z 20008KT 09/05 A2992 RMK A01 T00930048  RH  075%=      5-min Rain = 0
KST1 181500Z 20009KT 10/05 A2992 RMK A01 T00970051  RH  074%=      5-min Rain = 0
KST1 181505Z 20009KT 10/05 A2991 RMK A01 T01020053  RH  073%=      5-min Rain = 0
KST1 181510Z 20010KT 10/05 A2991 RMK A01 T01040054  RH  072%=      5-min Rain = 0
KST1 181515Z 20010KT 11/06 A2991 RMK A01 T01070055  RH  071%=      5-min Rain = 0
KST1 181520Z 20011KT 11/06 A2991 RMK A01 T01120057  RH  070%=      5-min Rain = 0
KST1 181525Z 20010KT 12/06 A2991 RMK A01 T01150058  RH  069%=      5-min Rain = 0
KST1 181530Z 20011G16KT 12/06 A2991 RMK A01 T01210060  RH  068%=      5-min Rain = 0
KST1 181535Z 21010KT 12/06 A2991 RMK A01 T01220060  RH  067%=      5-min Rain = 0
KST1 181540Z 21011KT 12/06 A2992 RMK A01 T01220061  RH  067%=      5-min Rain = 0
KST1 181545Z 21011KT 13/06 A2992 RMK A01 T01270063  RH  066%=      5-min Rain = 0
KST1 181550Z 21012KT 13/06 A2991 RMK A01 T01260061  RH  065%=      5-min Rain = 0
KST1 181555Z 21012KT 13/06 A2991 RMK A01 T01310063  RH  065%=      5-min Rain = 0
KST1 181600Z 21014KT 14/06 A2991 RMK A01 T01350063  RH  063%=      5-min Rain = 0
KST1 181605Z 22012KT 14/06 A2992 RMK A01 T01390064  RH  062%=      5-min Rain = 0
KST1 181610Z 22013KT 14/06 A2992 RMK A01 T01420064  RH  060%=      5-min Rain = 0
KST1 181615Z 23015G21KT 15/06 A2992 RMK A01 T01450063  RH  059%=      5-min Rain = 0
KST1 181620Z 23015KT 15/06 A2991 RMK A01 T01460062  RH  058%=      5-min Rain = 0
KST1 181625Z 23016KT 15/06 A2991 RMK A01 T01480063  RH  057%=      5-min Rain = 0
KST1 181630Z 23016KT 15/06 A2991 RMK A01 T01510063  RH  057%=      5-min Rain = 0
KST1 181635Z 24014KT 16/07 A2991 RMK A01 T01560065  RH  055%=      5-min Rain = 0
KST1 181640Z 24015KT 16/07 A2991 RMK A01 T01620065  RH  053%=      5-min Rain = 0
KST1 181645Z 24014KT 17/07 A2991 RMK A01 T01670066  RH  052%=      5-min Rain = 0
KST1 181650Z 24013KT 18/06 A2991 RMK A01 T01770064  RH  048%=      5-min Rain = 0
KST1 181655Z 24015G23KT 18/06 A2991 RMK A01 T01840060  RH  045%=      5-min Rain = 0
KST1 181700Z 24020KT 19/04 A2991 RMK A01 T01930043  RH  038%=      5-min Rain = 0
KST1 181705Z 25022G28KT 20/04 A299 RMK A01 T01970041  RH  036%=      5-min Rain = 0
KST1 181710Z 24020G25KT 20/04 A299 RMK A01 T02010040  RH  035%=      5-min Rain = 0
KST1 181715Z 25021G32KT 20/04 A299 RMK A01 T02040038  RH  034%=      5-min Rain = 0
KST1 181720Z 25024G29KT 20/03 A299 RMK A01 T02040033  RH  033%=      5-min Rain = 0
KST1 181725Z 24024G32KT 21/03 A299 RMK A01 T02080031  RH  032%=      5-min Rain = 0
KST1 181730Z 24025G32KT 21/03 A2989 RMK A01 T02100028  RH  030%=      5-min Rain = 0
KST1 181735Z 24025G32KT 21/03 A2989 RMK A01 T02110028  RH  030%=      5-min Rain = 0
KST1 181740Z 24025G34KT 21/03 A2988 RMK A01 T02120026  RH  030%=      5-min Rain = 0
KST1 181745Z 24024G31KT 21/02 A2988 RMK A01 T02120024  RH  029%=      5-min Rain = 0
KST1 181750Z 24028G33KT 21/02 A2987 RMK A01 T02110018  RH  028%=      5-min Rain = 0
KST1 181755Z 25028G37KT 21/02 A2987 RMK A01 T02120016  RH  028%=      5-min Rain = 0
KST1 181800Z 25026G33KT 22/02 A2987 RMK A01 T02150020  RH  028%=      5-min Rain = 0
KST1 181805Z 25024G33KT 22/02 A2987 RMK A01 T02190023  RH  028%=      5-min Rain = 0
KST1 181810Z 25027G34KT 22/02 A2986 RMK A01 T02170021  RH  028%=      5-min Rain = 0
KST1 181815Z 25027G34KT 22/02 A2985 RMK A01 T02190022  RH  027%=      5-min Rain = 0
KST1 181820Z 26028G37KT 22/02 A2985 RMK A01 T02150015  RH  027%=      5-min Rain = 0
KST1 181825Z 25027G35KT 22/02 A2985 RMK A01 T02150017  RH  027%=      5-min Rain = 0
KST1 181830Z 25027G32KT 22/02 A2984 RMK A01 T02190017  RH  027%=      5-min Rain = 0
KST1 181835Z 25030G35KT 22/02 A2984 RMK A01 T02220015  RH  026%=      5-min Rain = 0
KST1 181840Z 26029G39KT 22/01 A2983 RMK A01 T02230008  RH  024%=      5-min Rain = 0
KST1 181845Z 25028G35KT 22/00 A2983 RMK A01 T02230000  RH  023%=      5-min Rain = 0
KST1 181850Z 26027G35KT 23/00 A2983 RMK A01 T02260002  RH  023%=      5-min Rain = 0
KST1 181855Z 26029G37KT 22/M00 A2982 RMK A01 T02231002  RH  023%=      5-min Rain = 0
KST1 181900Z 26028G36KT 22/00 A2982 RMK A01 T02230001  RH  023%=      5-min Rain = 0
KST1 181905Z 26031G37KT 23/00 A2981 RMK A01 T02270001  RH  023%=      5-min Rain = 0
KST1 181910Z 26031G37KT 23/M00 A2981 RMK A01 T02251001  RH  023%=      5-min Rain = 0
KST1 181915Z 26030G38KT 23/00 A298 RMK A01 T02260000  RH  023%=      5-min Rain = 0
KST1 181920Z 26029G36KT 23/00 A298 RMK A01 T022700-0  RH  022%=      5-min Rain = 0
KST1 181925Z 25028G35KT 23/M00 A298 RMK A01 T02281001  RH  022%=      5-min Rain = 0
KST1 181930Z 26028G34KT 22/M00 A298 RMK A01 T02241002  RH  022%=      5-min Rain = 0
KST1 181935Z 26027G33KT 23/00 A298 RMK A01 T022700-0  RH  022%=      5-min Rain = 0
KST1 181940Z 25030G39KT 23/M00 A2979 RMK A01 T02271002  RH  022%=      5-min Rain = 0
KST1 181945Z 25028G37KT 23/00 A2978 RMK A01 T023100-0  RH  022%=      5-min Rain = 0
KST1 181950Z 26027G35KT 23/M00 A2978 RMK A01 T02251002  RH  022%=      5-min Rain = 0
KST1 181955Z 26027G35KT 22/M00 A2978 RMK A01 T02211003  RH  023%=      5-min Rain = 0
KST1 182000Z 26029G36KT 22/M01 A2978 RMK A01 T02161005  RH  023%=      5-min Rain = 0
KST1 182005Z 26027G37KT 21/M01 A2977 RMK A01 T02141005  RH  023%=      5-min Rain = 0
KST1 182010Z 26028G34KT 21/M01 A2977 RMK A01 T02121005  RH  024%=      5-min Rain = 0
KST1 182015Z 27025G31KT 21/M00 A2977 RMK A01 T02141003  RH  024%=      5-min Rain = 0
KST1 182020Z 26026G34KT 22/00 A2977 RMK A01 T021700-0  RH  024%=      5-min Rain = 0
KST1 182025Z 26028G36KT 22/M00 A2976 RMK A01 T02161002  RH  024%=      5-min Rain = 0
KST1 182030Z 26029G35KT 21/M00 A2976 RMK A01 T02141003  RH  024%=      5-min Rain = 0
KST1 182035Z 25025G32KT 21/M00 A2976 RMK A01 T02131002  RH  024%=      5-min Rain = 0
KST1 182040Z 25028G34KT 21/M00 A2976 RMK A01 T02121004  RH  024%=      5-min Rain = 0
KST1 182045Z 25022G29KT 21/M00 A2976 RMK A01 T02141002  RH  024%=      5-min Rain = 0
KST1 182050Z 25025G33KT 22/M00 A2976 RMK A01 T02181002  RH  023%=      5-min Rain = 0
KST1 182055Z 25026G32KT 22/M00 A2976 RMK A01 T02201004  RH  023%=      5-min Rain = 0
KST1 182100Z 25026G33KT 22/M00 A2976 RMK A01 T02191004  RH  023%=      5-min Rain = 0
KST1 182105Z 26024G32KT 22/M00 A2975 RMK A01 T02221003  RH  023%=      5-min Rain = 0
KST1 182110Z 26028G34KT 22/M00 A2975 RMK A01 T02231004  RH  022%=      5-min Rain = 0
KST1 182115Z 26027G34KT 22/M00 A2975 RMK A01 T02221004  RH  022%=      5-min Rain = 0
KST1 182120Z 27026G33KT 22/M01 A2975 RMK A01 T02221006  RH  022%=      5-min Rain = 0
KST1 182125Z 27025G31KT 22/M01 A2974 RMK A01 T02221005  RH  022%=      5-min Rain = 0
KST1 182130Z 27026G31KT 22/M01 A2975 RMK A01 T02211007  RH  022%=      5-min Rain = 0
KST1 182135Z 26026G32KT 22/M01 A2975 RMK A01 T02201007  RH  022%=      5-min Rain = 0
KST1 182140Z 26025G32KT 22/M01 A2975 RMK A01 T02171007  RH  023%=      5-min Rain = 0
KST1 182145Z 26026G32KT 22/M01 A2975 RMK A01 T02211005  RH  022%=      5-min Rain = 0
KST1 182150Z 26025G32KT 22/M01 A2975 RMK A01 T02201006  RH  022%=      5-min Rain = 0
KST1 182155Z 26023G31KT 22/M01 A2975 RMK A01 T02221005  RH  022%=      5-min Rain = 0
KST1 182200Z 26024G31KT 22/M01 A2975 RMK A01 T02221005  RH  022%=      5-min Rain = 0
KST1 182205Z 27025G31KT 22/M01 A2975 RMK A01 T02181006  RH  023%=      5-min Rain = 0
KST1 182210Z 26024G29KT 21/M01 A2975 RMK A01 T02131007  RH  023%=      5-min Rain = 0
KST1 182215Z 26024G31KT 21/M01 A2975 RMK A01 T02141005  RH  023%=      5-min Rain = 0
KST1 182220Z 26026G31KT 22/M00 A2975 RMK A01 T02151004  RH  023%=      5-min Rain = 0
KST1 182225Z 26027G33KT 21/M00 A2975 RMK A01 T02141004  RH  024%=      5-min Rain = 0
KST1 182230Z 27023G29KT 21/00 A2976 RMK A01 T021400-0  RH  024%=      5-min Rain = 0
KST1 182235Z 27023KT 21/00 A2976 RMK A01 T021300-0  RH  024%=      5-min Rain = 0
KST1 182240Z 26021G26KT 21/M00 A2975 RMK A01 T02121001  RH  024%=      5-min Rain = 0
KST1 182245Z 27022G30KT 21/00 A2976 RMK A01 T02130000  RH  024%=      5-min Rain = 0
KST1 182250Z 27020G26KT 21/00 A2976 RMK A01 T02140002  RH  025%=      5-min Rain = 0
KST1 182255Z 27020G27KT 21/00 A2976 RMK A01 T02140002  RH  025%=      5-min Rain = 0
KST1 182300Z 27024G31KT 21/M00 A2975 RMK A01 T02121002  RH  024%=      5-min Rain = 0
KST1 182305Z 27021G29KT 21/M00 A2975 RMK A01 T02111001  RH  025%=      5-min Rain = 0
KST1 182310Z 27022G28KT 21/00 A2975 RMK A01 T02090001  RH  025%=      5-min Rain = 0
KST1 182315Z 27024G31KT 21/00 A2975 RMK A01 T02070001  RH  026%=      5-min Rain = 0
KST1 182320Z 27021G27KT 21/00 A2975 RMK A01 T02050002  RH  026%=      5-min Rain = 0
KST1 182325Z 27021G28KT 20/00 A2975 RMK A01 T02040002  RH  026%=      5-min Rain = 0
KST1 182330Z 27022KT 20/00 A2975 RMK A01 T02010001  RH  027%=      5-min Rain = 0
KST1 182335Z 27019G27KT 20/00 A2975 RMK A01 T01980001  RH  027%=      5-min Rain = 0
KST1 182340Z 27018KT 20/00 A2975 RMK A01 T01950002  RH  028%=      5-min Rain = 0
KST1 182345Z 27017G22KT 19/00 A2975 RMK A01 T01930003  RH  028%=      5-min Rain = 0
KST1 182350Z 27020G27KT 19/00 A2976 RMK A01 T01930003  RH  028%=      5-min Rain = 0
KST1 182355Z 28022G28KT 19/01 A2977 RMK A01 T01940005  RH  028%=      5-min Rain = 0
KST1 190000Z 28026G33KT 19/03 A2978 RMK A01 T01860027  RH  035%=      5-min Rain = 0
KST1 190005Z 29028G34KT 18/03 A2978 RMK A01 T01790034  RH  039%=      5-min Rain = 0
KST1 190010Z 32022G27KT 17/04 A2979 RMK A01 T01650036  RH  043%=      5-min Rain = 0
KST1 190015Z 32019KT 16/03 A2979 RMK A01 T01630034  RH  043%=      5-min Rain = 0
KST1 190020Z 31016G21KT 16/04 A298 RMK A01 T01620035  RH  043%=      5-min Rain = 0
KST1 190025Z 31015G20KT 16/03 A298 RMK A01 T01620033  RH  043%=      5-min Rain = 0
KST1 190030Z 31019G26KT 16/02 A2981 RMK A01 T01630019  RH  039%=      5-min Rain = 0
KST1 190035Z 30018KT 16/01 A2982 RMK A01 T01600012  RH  037%=      5-min Rain = 0
KST1 190040Z 31017G23KT 16/01 A2982 RMK A01 T01570006  RH  036%=      5-min Rain = 0
KST1 190045Z 31018KT 15/00 A2982 RMK A01 T01540003  RH  036%=      5-min Rain = 0
KST1 190050Z 31017KT 15/00 A2982 RMK A01 T01530002  RH  036%=      5-min Rain = 0
KST1 190055Z 30014KT 15/00 A2982 RMK A01 T01500001  RH  037%=      5-min Rain = 0
KST1 190100Z 30013KT 15/M00 A2982 RMK A01 T01491002  RH  036%=      5-min Rain = 0
KST1 190105Z 30013KT 15/M01 A2982 RMK A01 T01461006  RH  036%=      5-min Rain = 0
KST1 190110Z 31014KT 14/M01 A2982 RMK A01 T01441009  RH  035%=      5-min Rain = 0
KST1 190115Z 30013KT 14/M01 A2982 RMK A01 T01421010  RH  035%=      5-min Rain = 0
KST1 190120Z 30013KT 14/M01 A2983 RMK A01 T01401011  RH  036%=      5-min Rain = 0
KST1 190125Z 30012KT 14/M01 A2983 RMK A01 T01381011  RH  036%=      5-min Rain = 0
KST1 190130Z 30013KT 14/M01 A2983 RMK A01 T01361012  RH  036%=      5-min Rain = 0
KST1 190135Z 30012KT 14/M01 A2984 RMK A01 T01351011  RH  037%=      5-min Rain = 0
KST1 190140Z 30013KT 14/M01 A2984 RMK A01 T01361010  RH  037%=      5-min Rain = 0
KST1 190145Z 30013KT 14/M01 A2984 RMK A01 T01381011  RH  036%=      5-min Rain = 0
KST1 190150Z 30015G20KT 14/M01 A2985 RMK A01 T01391013  RH  035%=      5-min Rain = 0
KST1 190155Z 30026G37KT 14/M03 A2986 RMK A01 T01441029  RH  031%=      5-min Rain = 0
KST1 190200Z 31026G38KT 15/M05 A2986 RMK A01 T01471045  RH  026%=      5-min Rain = 0
KST1 190205Z 31021G29KT 15/M04 A2986 RMK A01 T01451041  RH  028%=      5-min Rain = 0
KST1 190210Z 30021G27KT 15/M04 A2987 RMK A01 T01451043  RH  027%=      5-min Rain = 0
KST1 190215Z 30023G29KT 15/M05 A2986 RMK A01 T01471051  RH  025%=      5-min Rain = 0
KST1 190220Z 30021G28KT 15/M05 A2987 RMK A01 T01461052  RH  025%=      5-min Rain = 0
KST1 190225Z 30020G26KT 15/M06 A2987 RMK A01 T01461055  RH  025%=      5-min Rain = 0
KST1 190230Z 30021G27KT 15/M06 A2987 RMK A01 T01451056  RH  025%=      5-min Rain = 0
KST1 190235Z 30021G29KT 15/M06 A2987 RMK A01 T01451056  RH  025%=      5-min Rain = 0
KST1 190240Z 30021G28KT 15/M06 A2987 RMK A01 T01451055  RH  025%=      5-min Rain = 0
KST1 190245Z 29022G28KT 15/M06 A2987 RMK A01 T01451055  RH  025%=      5-min Rain = 0
KST1 190250Z 30022G27KT 15/M05 A2988 RMK A01 T01451053  RH  025%=      5-min Rain = 0
KST1 190255Z 30023G29KT 14/M05 A2988 RMK A01 T01441052  RH  026%=      5-min Rain = 0
KST1 190300Z 30022G29KT 14/M05 A2988 RMK A01 T01431051  RH  026%=      5-min Rain = 0
KST1 190305Z 30023G29KT 14/M05 A2987 RMK A01 T01421051  RH  026%=      5-min Rain = 0
KST1 190310Z 30023G30KT 14/M05 A2987 RMK A01 T01421049  RH  027%=      5-min Rain = 0
KST1 190315Z 30024G30KT 14/M05 A2988 RMK A01 T01421046  RH  027%=      5-min Rain = 0
KST1 190320Z 29024G30KT 14/M04 A2989 RMK A01 T01431044  RH  027%=      5-min Rain = 0
KST1 190325Z 29025G36KT 15/M05 A299 RMK A01 T01451046  RH  027%=      5-min Rain = 0
KST1 190330Z 30029G37KT 15/M05 A299 RMK A01 T01461049  RH  026%=      5-min Rain = 0
KST1 190335Z 29032G43KT 15/M05 A2989 RMK A01 T01451054  RH  025%=      5-min Rain = 0
KST1 190340Z 30028G34KT 15/M06 A299 RMK A01 T01451055  RH  025%=      5-min Rain = 0
KST1 190345Z 30030G41KT 14/M06 A299 RMK A01 T01441059  RH  024%=      5-min Rain = 0
KST1 190350Z 30028G36KT 14/M06 A299 RMK A01 T01421060  RH  024%=      5-min Rain = 0
KST1 190355Z 30028G39KT 14/M06 A2991 RMK A01 T01391058  RH  025%=      5-min Rain = 0
KST1 190400Z 30030G38KT 14/M06 A2991 RMK A01 T01401058  RH  025%=      5-min Rain = 0
KST1 190405Z 30029G37KT 14/M06 A2991 RMK A01 T01401060  RH  025%=      5-min Rain = 0
KST1 190410Z 31031G40KT 14/M07 A2991 RMK A01 T01391065  RH  024%=      5-min Rain = 0
KST1 190415Z 31028G37KT 14/M07 A2992 RMK A01 T01361066  RH  024%=      5-min Rain = 0
KST1 190420Z 33028G34KT 13/M03 A2993 RMK A01 T01271033  RH  033%=      5-min Rain = 0
KST1 190425Z 33032G42KT 12/M00 A2994 RMK A01 T01171003  RH  044%=      5-min Rain = 0
KST1 190430Z 33031G39KT 11/00 A2994 RMK A01 T01130004  RH  047%=      5-min Rain = 0
KST1 190435Z 33030G36KT 11/01 A2994 RMK A01 T01090006  RH  049%=      5-min Rain = 0
KST1 190440Z 33030G36KT 11/01 A2994 RMK A01 T01060009  RH  052%=      5-min Rain = 0
KST1 190445Z 33026G31KT 10/01 A2995 RMK A01 T01030010  RH  053%=      5-min Rain = 0
KST1 190450Z 33025G35KT 10/01 A2996 RMK A01 T01000011  RH  055%=      5-min Rain = 0
KST1 190455Z 33026G32KT 10/01 A2996 RMK A01 T00970013  RH  056%=      5-min Rain = 0
KST1 190500Z 33027G32KT 10/01 A2995 RMK A01 T00950013  RH  057%=      5-min Rain = 0
KST1 190505Z 33025G32KT 09/01 A2996 RMK A01 T00920014  RH  059%=      5-min Rain = 0
KST1 190510Z 33025G30KT 09/02 A2997 RMK A01 T00910015  RH  060%=      5-min Rain = 0
KST1 190515Z 33026G33KT 09/02 A2997 RMK A01 T00900015  RH  060%=      5-min Rain = 0
KST1 190520Z 33027G34KT 09/02 A2998 RMK A01 T00890016  RH  061%=      5-min Rain = 0
KST1 190525Z 32030G37KT 09/02 A2998 RMK A01 T00880016  RH  061%=      5-min Rain = 0
KST1 190530Z 33033G40KT 09/01 A2998 RMK A01 T00870014  RH  061%=      5-min Rain = 0
KST1 190535Z 33032G39KT 09/01 A2999 RMK A01 T00860013  RH  061%=      5-min Rain = 0
KST1 190540Z 33029G35KT 08/01 A30 RMK A01 T00830012  RH  061%=      5-min Rain = 0
KST1 190545Z 33028G34KT 08/01 A3001 RMK A01 T00810012  RH  062%=      5-min Rain = 0
KST1 190550Z 32031G40KT 08/01 A3002 RMK A01 T00800010  RH  062%=      5-min Rain = 0
KST1 190555Z 32029G37KT 08/01 A3002 RMK A01 T00780010  RH  063%=      5-min Rain = 0

Page generated in 0.0092 seconds.